sensor_id;sensor_type;location;lat;lon;timestamp;pressure;altitude;pressure_sealevel;temperature;humidity
20009;BME280;10165;42.662;23.260;2023-02-15T00:01:41;95291.59;;;4.21;61.51
20009;BME280;10165;42.662;23.260;2023-02-15T00:04:09;95284.69;;;4.25;61.26
20009;BME280;10165;42.662;23.260;2023-02-15T00:06:36;95297.91;;;3.76;62.76
20009;BME280;10165;42.662;23.260;2023-02-15T00:09:03;95303.78;;;3.68;63.78
20009;BME280;10165;42.662;23.260;2023-02-15T00:11:30;95307.44;;;3.72;63.65
20009;BME280;10165;42.662;23.260;2023-02-15T00:14:19;95301.84;;;3.83;63.05
20009;BME280;10165;42.662;23.260;2023-02-15T00:16:48;95306.47;;;4.07;62.49
20009;BME280;10165;42.662;23.260;2023-02-15T00:19:17;95302.34;;;4.29;62.27
20009;BME280;10165;42.662;23.260;2023-02-15T00:21:45;95314.38;;;4.51;61.23
20009;BME280;10165;42.662;23.260;2023-02-15T00:24:14;95312.06;;;4.44;60.74
20009;BME280;10165;42.662;23.260;2023-02-15T00:26:41;95308.56;;;4.10;62.50
20009;BME280;10165;42.662;23.260;2023-02-15T00:29:10;95306.56;;;4.36;62.19
20009;BME280;10165;42.662;23.260;2023-02-15T00:31:37;95302.97;;;4.16;62.24
20009;BME280;10165;42.662;23.260;2023-02-15T00:34:06;95307.47;;;4.16;62.92
20009;BME280;10165;42.662;23.260;2023-02-15T00:36:33;95312.06;;;4.39;62.10
20009;BME280;10165;42.662;23.260;2023-02-15T00:39:00;95307.63;;;4.29;62.07
20009;BME280;10165;42.662;23.260;2023-02-15T00:41:27;95311.38;;;4.28;62.15
20009;BME280;10165;42.662;23.260;2023-02-15T00:43:53;95314.75;;;4.68;61.16
20009;BME280;10165;42.662;23.260;2023-02-15T00:46:20;95308.59;;;4.77;60.12
20009;BME280;10165;42.662;23.260;2023-02-15T00:48:47;95316.16;;;3.77;62.50
20009;BME280;10165;42.662;23.260;2023-02-15T00:51:14;95308.50;;;4.20;62.97
20009;BME280;10165;42.662;23.260;2023-02-15T00:53:40;95308.50;;;4.20;62.33
20009;BME280;10165;42.662;23.260;2023-02-15T00:56:07;95310.38;;;4.14;62.52
20009;BME280;10165;42.662;23.260;2023-02-15T00:58:33;95314.88;;;3.65;64.10
20009;BME280;10165;42.662;23.260;2023-02-15T01:01:06;95310.78;;;3.88;63.49
20009;BME280;10165;42.662;23.260;2023-02-15T01:03:33;95313.81;;;4.15;62.06
20009;BME280;10165;42.662;23.260;2023-02-15T01:06:00;95308.72;;;4.28;62.30
20009;BME280;10165;42.662;23.260;2023-02-15T01:08:29;95298.72;;;4.20;61.67
20009;BME280;10165;42.662;23.260;2023-02-15T01:10:56;95307.13;;;3.83;63.27
20009;BME280;10165;42.662;23.260;2023-02-15T01:13:23;95306.97;;;4.14;62.57
20009;BME280;10165;42.662;23.260;2023-02-15T01:15:54;95306.13;;;4.57;61.22
20009;BME280;10165;42.662;23.260;2023-02-15T01:18:21;95298.75;;;4.54;61.42
20009;BME280;10165;42.662;23.260;2023-02-15T01:20:48;95297.84;;;4.64;60.63
20009;BME280;10165;42.662;23.260;2023-02-15T01:23:15;95297.38;;;4.23;61.58
20009;BME280;10165;42.662;23.260;2023-02-15T01:25:42;95297.78;;;4.01;62.30
20009;BME280;10165;42.662;23.260;2023-02-15T01:28:09;95293.88;;;3.94;63.31
20009;BME280;10165;42.662;23.260;2023-02-15T01:30:35;95296.47;;;4.71;61.45
20009;BME280;10165;42.662;23.260;2023-02-15T01:33:02;95291.66;;;4.45;61.78
20009;BME280;10165;42.662;23.260;2023-02-15T01:35:29;95291.97;;;3.99;63.07
20009;BME280;10165;42.662;23.260;2023-02-15T01:37:56;95293.91;;;4.27;62.86
20009;BME280;10165;42.662;23.260;2023-02-15T01:40:24;95294.69;;;3.84;63.80
20009;BME280;10165;42.662;23.260;2023-02-15T01:42:52;95291.69;;;4.73;61.47
20009;BME280;10165;42.662;23.260;2023-02-15T01:45:28;95290.06;;;4.10;62.69
20009;BME280;10165;42.662;23.260;2023-02-15T01:48:05;95278.94;;;4.13;63.03
20009;BME280;10165;42.662;23.260;2023-02-15T01:50:41;95278.19;;;4.41;62.35
20009;BME280;10165;42.662;23.260;2023-02-15T01:55:58;95288.25;;;4.05;62.23
20009;BME280;10165;42.662;23.260;2023-02-15T01:58:27;95273.38;;;4.14;62.50
20009;BME280;10165;42.662;23.260;2023-02-15T02:00:57;95270.34;;;4.65;61.66
20009;BME280;10165;42.662;23.260;2023-02-15T02:03:56;95267.50;;;4.22;61.94
20009;BME280;10165;42.662;23.260;2023-02-15T02:06:26;95275.78;;;3.67;64.44
20009;BME280;10165;42.662;23.260;2023-02-15T02:08:54;95270.66;;;3.80;64.77
20009;BME280;10165;42.662;23.260;2023-02-15T02:11:21;95263.66;;;4.05;63.77
20009;BME280;10165;42.662;23.260;2023-02-15T02:13:50;95269.19;;;4.08;63.09
20009;BME280;10165;42.662;23.260;2023-02-15T02:16:37;95272.97;;;3.92;63.17
20009;BME280;10165;42.662;23.260;2023-02-15T02:27:47;95279.53;;;4.05;63.29
20009;BME280;10165;42.662;23.260;2023-02-15T02:33:02;95285.13;;;3.98;63.44
20009;BME280;10165;42.662;23.260;2023-02-15T02:38:39;95284.22;;;4.52;61.90
20009;BME280;10165;42.662;23.260;2023-02-15T02:41:31;95286.78;;;4.23;62.88
20009;BME280;10165;42.662;23.260;2023-02-15T02:44:16;95288.31;;;4.34;62.74
20009;BME280;10165;42.662;23.260;2023-02-15T02:49:38;95282.44;;;5.00;60.33
20009;BME280;10165;42.662;23.260;2023-02-15T02:57:58;95287.28;;;4.64;61.18
20009;BME280;10165;42.662;23.260;2023-02-15T03:00:30;95295.75;;;4.32;62.01
20009;BME280;10165;42.662;23.260;2023-02-15T03:03:02;95289.75;;;4.16;61.78
20009;BME280;10165;42.662;23.260;2023-02-15T03:05:34;95298.81;;;4.05;62.43
20009;BME280;10165;42.662;23.260;2023-02-15T03:08:03;95294.56;;;4.09;62.78
20009;BME280;10165;42.662;23.260;2023-02-15T03:10:34;95308.28;;;3.62;64.33
20009;BME280;10165;42.662;23.260;2023-02-15T03:13:01;95305.53;;;4.31;62.84
20009;BME280;10165;42.662;23.260;2023-02-15T03:15:37;95315.50;;;4.01;63.36
20009;BME280;10165;42.662;23.260;2023-02-15T03:18:26;95307.59;;;4.34;62.50
20009;BME280;10165;42.662;23.260;2023-02-15T03:20:55;95301.94;;;4.12;62.91
20009;BME280;10165;42.662;23.260;2023-02-15T03:23:24;95303.66;;;3.93;63.52
20009;BME280;10165;42.662;23.260;2023-02-15T03:25:58;95302.78;;;4.03;63.01
20009;BME280;10165;42.662;23.260;2023-02-15T03:31:02;95307.41;;;3.77;63.60
20009;BME280;10165;42.662;23.260;2023-02-15T03:33:31;95307.91;;;4.33;62.22
20009;BME280;10165;42.662;23.260;2023-02-15T03:36:12;95306.91;;;4.19;62.76
20009;BME280;10165;42.662;23.260;2023-02-15T03:39:05;95303.00;;;3.62;64.51
20009;BME280;10165;42.662;23.260;2023-02-15T03:41:40;95309.28;;;3.76;64.35
20009;BME280;10165;42.662;23.260;2023-02-15T03:44:15;95304.66;;;4.02;63.59
20009;BME280;10165;42.662;23.260;2023-02-15T03:49:54;95302.03;;;3.97;64.04
20009;BME280;10165;42.662;23.260;2023-02-15T03:52:26;95304.59;;;3.63;65.08
20009;BME280;10165;42.662;23.260;2023-02-15T03:54:55;95305.06;;;3.75;64.91
20009;BME280;10165;42.662;23.260;2023-02-15T03:57:24;95312.84;;;4.06;64.33
20009;BME280;10165;42.662;23.260;2023-02-15T04:00:24;95302.38;;;3.80;64.92
20009;BME280;10165;42.662;23.260;2023-02-15T04:03:26;95302.84;;;3.93;64.36
20009;BME280;10165;42.662;23.260;2023-02-15T04:05:56;95298.75;;;4.15;63.83
20009;BME280;10165;42.662;23.260;2023-02-15T04:08:22;95309.31;;;3.66;65.39
20009;BME280;10165;42.662;23.260;2023-02-15T04:11:09;95312.06;;;4.00;64.80
20009;BME280;10165;42.662;23.260;2023-02-15T04:13:36;95316.69;;;4.18;63.74
20009;BME280;10165;42.662;23.260;2023-02-15T04:16:02;95312.03;;;4.05;64.80
20009;BME280;10165;42.662;23.260;2023-02-15T04:21:20;95326.47;;;3.69;65.46
20009;BME280;10165;42.662;23.260;2023-02-15T04:24:05;95330.38;;;4.30;64.36
20009;BME280;10165;42.662;23.260;2023-02-15T04:26:51;95324.63;;;4.18;64.50
20009;BME280;10165;42.662;23.260;2023-02-15T04:29:22;95332.63;;;4.08;64.27
20009;BME280;10165;42.662;23.260;2023-02-15T04:31:50;95342.00;;;3.91;65.65
20009;BME280;10165;42.662;23.260;2023-02-15T04:34:17;95342.94;;;3.51;66.53
20009;BME280;10165;42.662;23.260;2023-02-15T04:36:44;95346.00;;;3.78;65.98
20009;BME280;10165;42.662;23.260;2023-02-15T04:39:15;95345.00;;;4.18;65.34
20009;BME280;10165;42.662;23.260;2023-02-15T04:41:42;95351.03;;;5.01;63.11
20009;BME280;10165;42.662;23.260;2023-02-15T04:44:09;95344.25;;;4.12;64.47
20009;BME280;10165;42.662;23.260;2023-02-15T04:46:36;95352.81;;;3.94;65.00
20009;BME280;10165;42.662;23.260;2023-02-15T04:49:03;95349.06;;;4.05;65.10
20009;BME280;10165;42.662;23.260;2023-02-15T04:51:31;95352.88;;;3.74;65.82
20009;BME280;10165;42.662;23.260;2023-02-15T04:53:58;95347.06;;;4.65;63.37
20009;BME280;10165;42.662;23.260;2023-02-15T04:56:24;95353.84;;;4.42;63.37
20009;BME280;10165;42.662;23.260;2023-02-15T04:58:51;95359.13;;;3.98;65.23
20009;BME280;10165;42.662;23.260;2023-02-15T05:01:18;95352.16;;;4.17;64.93
20009;BME280;10165;42.662;23.260;2023-02-15T05:03:45;95362.34;;;3.90;65.41
20009;BME280;10165;42.662;23.260;2023-02-15T05:06:12;95364.91;;;4.05;64.53
20009;BME280;10165;42.662;23.260;2023-02-15T05:08:38;95368.19;;;3.72;66.35
20009;BME280;10165;42.662;23.260;2023-02-15T05:11:05;95363.31;;;3.30;67.58
20009;BME280;10165;42.662;23.260;2023-02-15T05:13:31;95358.03;;;4.04;65.51
20009;BME280;10165;42.662;23.260;2023-02-15T05:15:58;95366.03;;;3.94;65.36
20009;BME280;10165;42.662;23.260;2023-02-15T05:18:25;95368.53;;;4.19;65.52
20009;BME280;10165;42.662;23.260;2023-02-15T05:20:52;95364.38;;;4.03;65.59
20009;BME280;10165;42.662;23.260;2023-02-15T05:23:18;95362.22;;;4.10;64.37
20009;BME280;10165;42.662;23.260;2023-02-15T05:25:49;95380.91;;;3.75;66.32
20009;BME280;10165;42.662;23.260;2023-02-15T05:28:35;95376.72;;;3.54;67.06
20009;BME280;10165;42.662;23.260;2023-02-15T05:31:05;95378.13;;;4.05;65.89
20009;BME280;10165;42.662;23.260;2023-02-15T05:33:34;95382.25;;;4.26;64.40
20009;BME280;10165;42.662;23.260;2023-02-15T05:36:01;95386.22;;;4.29;64.47
20009;BME280;10165;42.662;23.260;2023-02-15T05:38:29;95386.84;;;4.06;65.14
20009;BME280;10165;42.662;23.260;2023-02-15T05:40:57;95388.47;;;3.97;65.05
20009;BME280;10165;42.662;23.260;2023-02-15T05:43:24;95398.72;;;4.13;65.29
20009;BME280;10165;42.662;23.260;2023-02-15T05:45:53;95391.69;;;4.38;64.03
20009;BME280;10165;42.662;23.260;2023-02-15T05:48:22;95391.31;;;4.10;65.43
20009;BME280;10165;42.662;23.260;2023-02-15T05:53:27;95391.78;;;4.22;64.54
20009;BME280;10165;42.662;23.260;2023-02-15T05:55:54;95386.88;;;3.96;65.79
20009;BME280;10165;42.662;23.260;2023-02-15T05:58:27;95390.63;;;4.44;64.28
20009;BME280;10165;42.662;23.260;2023-02-15T06:00:54;95401.84;;;4.20;64.34
20009;BME280;10165;42.662;23.260;2023-02-15T06:03:22;95397.56;;;4.29;64.34
20009;BME280;10165;42.662;23.260;2023-02-15T06:05:49;95405.34;;;4.55;63.48
20009;BME280;10165;42.662;23.260;2023-02-15T06:08:15;95398.38;;;4.25;64.25
20009;BME280;10165;42.662;23.260;2023-02-15T06:10:42;95401.69;;;3.92;64.79
20009;BME280;10165;42.662;23.260;2023-02-15T06:13:09;95396.59;;;4.10;65.14
20009;BME280;10165;42.662;23.260;2023-02-15T06:15:35;95404.56;;;4.05;64.80
20009;BME280;10165;42.662;23.260;2023-02-15T06:18:02;95399.34;;;3.80;65.79
20009;BME280;10165;42.662;23.260;2023-02-15T06:20:29;95391.28;;;4.20;65.02
20009;BME280;10165;42.662;23.260;2023-02-15T06:22:56;95405.72;;;4.38;64.49
20009;BME280;10165;42.662;23.260;2023-02-15T06:25:22;95409.97;;;4.34;64.16
20009;BME280;10165;42.662;23.260;2023-02-15T06:27:50;95405.66;;;3.94;64.83
20009;BME280;10165;42.662;23.260;2023-02-15T06:30:17;95410.56;;;4.21;64.38
20009;BME280;10165;42.662;23.260;2023-02-15T06:32:44;95406.91;;;4.12;64.44
20009;BME280;10165;42.662;23.260;2023-02-15T06:35:10;95404.25;;;4.12;64.41
20009;BME280;10165;42.662;23.260;2023-02-15T06:37:38;95398.00;;;3.93;64.78
20009;BME280;10165;42.662;23.260;2023-02-15T06:40:05;95396.00;;;4.28;63.89
20009;BME280;10165;42.662;23.260;2023-02-15T06:42:32;95403.34;;;4.37;63.38
20009;BME280;10165;42.662;23.260;2023-02-15T06:44:59;95403.53;;;3.91;64.00
20009;BME280;10165;42.662;23.260;2023-02-15T06:47:27;95408.59;;;4.47;62.73
20009;BME280;10165;42.662;23.260;2023-02-15T06:49:53;95402.72;;;4.01;64.28
20009;BME280;10165;42.662;23.260;2023-02-15T06:52:20;95405.47;;;4.34;62.87
20009;BME280;10165;42.662;23.260;2023-02-15T06:54:46;95403.69;;;4.25;63.15
20009;BME280;10165;42.662;23.260;2023-02-15T06:57:13;95408.31;;;3.94;64.07
20009;BME280;10165;42.662;23.260;2023-02-15T06:59:40;95405.13;;;4.51;63.17
20009;BME280;10165;42.662;23.260;2023-02-15T07:02:08;95408.34;;;4.43;62.75
20009;BME280;10165;42.662;23.260;2023-02-15T07:04:35;95407.88;;;4.26;62.70
20009;BME280;10165;42.662;23.260;2023-02-15T07:07:02;95405.84;;;4.62;62.12
20009;BME280;10165;42.662;23.260;2023-02-15T07:09:29;95410.00;;;4.29;62.52
20009;BME280;10165;42.662;23.260;2023-02-15T07:11:56;95407.09;;;4.25;63.09
20009;BME280;10165;42.662;23.260;2023-02-15T07:14:41;95410.09;;;4.97;61.04
20009;BME280;10165;42.662;23.260;2023-02-15T07:17:08;95401.03;;;5.03;60.61
20009;BME280;10165;42.662;23.260;2023-02-15T07:19:54;95409.44;;;4.76;61.57
20009;BME280;10165;42.662;23.260;2023-02-15T07:22:21;95405.59;;;4.58;61.79
20009;BME280;10165;42.662;23.260;2023-02-15T07:24:48;95410.88;;;4.63;60.90
20009;BME280;10165;42.662;23.260;2023-02-15T07:27:15;95409.00;;;4.64;61.85
20009;BME280;10165;42.662;23.260;2023-02-15T07:29:42;95416.66;;;4.21;62.64
20009;BME280;10165;42.662;23.260;2023-02-15T07:32:09;95411.03;;;4.77;61.58
20009;BME280;10165;42.662;23.260;2023-02-15T07:34:35;95403.00;;;4.87;60.79
20009;BME280;10165;42.662;23.260;2023-02-15T07:37:02;95415.25;;;4.78;61.09
20009;BME280;10165;42.662;23.260;2023-02-15T07:39:29;95418.47;;;4.26;62.26
20009;BME280;10165;42.662;23.260;2023-02-15T07:41:55;95406.88;;;4.66;61.72
20009;BME280;10165;42.662;23.260;2023-02-15T07:44:22;95407.19;;;4.98;60.14
20009;BME280;10165;42.662;23.260;2023-02-15T07:46:49;95402.97;;;4.53;61.17
20009;BME280;10165;42.662;23.260;2023-02-15T07:49:16;95407.53;;;4.43;61.83
20009;BME280;10165;42.662;23.260;2023-02-15T07:51:42;95395.34;;;5.19;60.09
20009;BME280;10165;42.662;23.260;2023-02-15T07:54:09;95397.22;;;4.85;60.29
20009;BME280;10165;42.662;23.260;2023-02-15T07:56:36;95405.94;;;4.42;61.64
20009;BME280;10165;42.662;23.260;2023-02-15T07:59:02;95398.91;;;4.71;61.33
20009;BME280;10165;42.662;23.260;2023-02-15T08:01:36;95399.84;;;4.46;61.93
20009;BME280;10165;42.662;23.260;2023-02-15T08:04:04;95390.44;;;4.69;60.45
20009;BME280;10165;42.662;23.260;2023-02-15T08:06:34;95397.56;;;4.73;60.70
20009;BME280;10165;42.662;23.260;2023-02-15T08:09:04;95392.59;;;5.01;59.86
20009;BME280;10165;42.662;23.260;2023-02-15T08:11:34;95402.63;;;4.65;61.36
20009;BME280;10165;42.662;23.260;2023-02-15T08:14:05;95393.56;;;5.10;60.05
20009;BME280;10165;42.662;23.260;2023-02-15T08:19:02;95406.78;;;4.76;60.64
20009;BME280;10165;42.662;23.260;2023-02-15T08:21:30;95401.13;;;4.93;60.32
20009;BME280;10165;42.662;23.260;2023-02-15T08:23:57;95406.19;;;4.45;61.67
20009;BME280;10165;42.662;23.260;2023-02-15T08:26:25;95412.41;;;4.69;61.50
20009;BME280;10165;42.662;23.260;2023-02-15T08:28:53;95406.91;;;4.61;60.86
20009;BME280;10165;42.662;23.260;2023-02-15T08:31:20;95402.25;;;4.87;60.45
20009;BME280;10165;42.662;23.260;2023-02-15T08:33:49;95413.00;;;4.95;60.25
20009;BME280;10165;42.662;23.260;2023-02-15T08:36:19;95415.53;;;4.76;60.02
20009;BME280;10165;42.662;23.260;2023-02-15T08:38:46;95410.91;;;4.53;61.19
20009;BME280;10165;42.662;23.260;2023-02-15T08:41:25;95418.44;;;4.36;61.20
20009;BME280;10165;42.662;23.260;2023-02-15T08:43:56;95413.19;;;4.70;60.64
20009;BME280;10165;42.662;23.260;2023-02-15T08:46:26;95408.81;;;4.94;59.88
20009;BME280;10165;42.662;23.260;2023-02-15T08:48:53;95412.97;;;5.00;59.78
20009;BME280;10165;42.662;23.260;2023-02-15T08:51:31;95406.22;;;5.47;58.57
20009;BME280;10165;42.662;23.260;2023-02-15T08:54:00;95410.34;;;5.29;58.82
20009;BME280;10165;42.662;23.260;2023-02-15T08:56:29;95409.84;;;5.27;59.13
20009;BME280;10165;42.662;23.260;2023-02-15T08:58:56;95411.28;;;5.43;58.57
20009;BME280;10165;42.662;23.260;2023-02-15T09:01:28;95411.03;;;5.11;58.77
20009;BME280;10165;42.662;23.260;2023-02-15T09:04:01;95420.03;;;4.76;60.03
20009;BME280;10165;42.662;23.260;2023-02-15T09:06:28;95422.41;;;5.11;59.93
20009;BME280;10165;42.662;23.260;2023-02-15T09:08:56;95415.75;;;4.85;60.70
20009;BME280;10165;42.662;23.260;2023-02-15T09:11:30;95415.09;;;5.32;59.57
20009;BME280;10165;42.662;23.260;2023-02-15T09:14:01;95413.72;;;5.40;59.18
20009;BME280;10165;42.662;23.260;2023-02-15T09:16:30;95416.16;;;5.31;59.33
20009;BME280;10165;42.662;23.260;2023-02-15T09:18:58;95405.16;;;5.48;58.90
20009;BME280;10165;42.662;23.260;2023-02-15T09:21:26;95415.34;;;5.36;59.60
20009;BME280;10165;42.662;23.260;2023-02-15T09:24:02;95410.47;;;5.14;60.33
20009;BME280;10165;42.662;23.260;2023-02-15T09:26:30;95411.13;;;5.58;59.10
20009;BME280;10165;42.662;23.260;2023-02-15T09:28:59;95405.94;;;6.01;58.13
20009;BME280;10165;42.662;23.260;2023-02-15T09:31:30;95405.66;;;5.50;58.62
20009;BME280;10165;42.662;23.260;2023-02-15T09:33:58;95415.97;;;5.75;58.34
20009;BME280;10165;42.662;23.260;2023-02-15T09:36:36;95417.78;;;6.08;58.29
20009;BME280;10165;42.662;23.260;2023-02-15T09:39:10;95413.56;;;5.55;57.36
20009;BME280;10165;42.662;23.260;2023-02-15T09:41:48;95414.31;;;5.32;58.27
20009;BME280;10165;42.662;23.260;2023-02-15T09:47:43;95416.28;;;5.16;57.82
20009;BME280;10165;42.662;23.260;2023-02-15T09:50:45;95410.75;;;5.41;57.18
20009;BME280;10165;42.662;23.260;2023-02-15T09:53:42;95399.78;;;5.53;57.31
20009;BME280;10165;42.662;23.260;2023-02-15T09:56:31;95409.78;;;5.90;56.46
20009;BME280;10165;42.662;23.260;2023-02-15T10:02:37;95410.09;;;5.25;58.24
20009;BME280;10165;42.662;23.260;2023-02-15T10:05:29;95405.69;;;5.45;57.58
20009;BME280;10165;42.662;23.260;2023-02-15T10:23:57;95387.53;;;5.86;56.54
20009;BME280;10165;42.662;23.260;2023-02-15T10:26:36;95390.56;;;5.74;56.22
20009;BME280;10165;42.662;23.260;2023-02-15T10:31:49;95392.78;;;6.33;55.10
20009;BME280;10165;42.662;23.260;2023-02-15T10:34:32;95383.19;;;5.71;56.10
20009;BME280;10165;42.662;23.260;2023-02-15T10:42:59;95370.63;;;6.05;56.34
20009;BME280;10165;42.662;23.260;2023-02-15T10:48:40;95379.28;;;6.11;55.43
20009;BME280;10165;42.662;23.260;2023-02-15T10:51:19;95363.84;;;5.70;56.26
20009;BME280;10165;42.662;23.260;2023-02-15T10:59:34;95356.94;;;6.54;55.21
20009;BME280;10165;42.662;23.260;2023-02-15T11:05:35;95372.34;;;5.91;56.49
20009;BME280;10165;42.662;23.260;2023-02-15T11:08:06;95362.47;;;6.20;57.03
20009;BME280;10165;42.662;23.260;2023-02-15T11:11:04;95351.88;;;6.90;55.72
20009;BME280;10165;42.662;23.260;2023-02-15T11:13:36;95352.63;;;7.09;54.58
20009;BME280;10165;42.662;23.260;2023-02-15T11:16:14;95356.34;;;6.76;54.70
20009;BME280;10165;42.662;23.260;2023-02-15T11:18:53;95360.88;;;6.57;55.40
20009;BME280;10165;42.662;23.260;2023-02-15T11:21:43;95354.16;;;6.46;55.81
20009;BME280;10165;42.662;23.260;2023-02-15T11:24:14;95357.06;;;6.44;55.56
20009;BME280;10165;42.662;23.260;2023-02-15T11:26:48;95364.81;;;6.22;56.13
20009;BME280;10165;42.662;23.260;2023-02-15T11:32:28;95339.91;;;5.99;56.36
20009;BME280;10165;42.662;23.260;2023-02-15T11:35:03;95349.53;;;6.14;55.26
20009;BME280;10165;42.662;23.260;2023-02-15T11:37:43;95346.88;;;6.14;56.08
20009;BME280;10165;42.662;23.260;2023-02-15T11:40:34;95341.31;;;6.15;55.08
20009;BME280;10165;42.662;23.260;2023-02-15T11:43:06;95349.16;;;5.78;56.71
20009;BME280;10165;42.662;23.260;2023-02-15T11:45:41;95334.59;;;5.99;56.13
20009;BME280;10165;42.662;23.260;2023-02-15T11:48:11;95324.41;;;5.88;56.39
20009;BME280;10165;42.662;23.260;2023-02-15T11:50:38;95329.44;;;5.89;56.01
20009;BME280;10165;42.662;23.260;2023-02-15T11:53:19;95317.47;;;5.92;56.67
20009;BME280;10165;42.662;23.260;2023-02-15T11:55:54;95323.34;;;5.65;56.98
20009;BME280;10165;42.662;23.260;2023-02-15T11:58:33;95320.63;;;5.70;56.69
20009;BME280;10165;42.662;23.260;2023-02-15T12:01:14;95307.44;;;6.07;55.69
20009;BME280;10165;42.662;23.260;2023-02-15T12:03:46;95306.28;;;6.13;55.29
20009;BME280;10165;42.662;23.260;2023-02-15T12:08:50;95310.03;;;6.31;54.63
20009;BME280;10165;42.662;23.260;2023-02-15T12:11:25;95308.41;;;6.16;55.35
20009;BME280;10165;42.662;23.260;2023-02-15T12:16:25;95293.72;;;6.05;56.51
20009;BME280;10165;42.662;23.260;2023-02-15T12:18:55;95294.78;;;6.74;54.47
20009;BME280;10165;42.662;23.260;2023-02-15T12:21:32;95294.47;;;6.76;54.42
20009;BME280;10165;42.662;23.260;2023-02-15T12:24:15;95299.06;;;6.19;55.38
20009;BME280;10165;42.662;23.260;2023-02-15T12:26:44;95281.84;;;6.54;55.55
20009;BME280;10165;42.662;23.260;2023-02-15T12:29:25;95285.75;;;6.56;54.98
20009;BME280;10165;42.662;23.260;2023-02-15T12:31:53;95282.19;;;6.66;54.63
20009;BME280;10165;42.662;23.260;2023-02-15T12:34:32;95286.19;;;6.12;56.00
20009;BME280;10165;42.662;23.260;2023-02-15T12:37:15;95282.69;;;6.49;54.81
20009;BME280;10165;42.662;23.260;2023-02-15T12:39:55;95288.53;;;6.14;55.70
20009;BME280;10165;42.662;23.260;2023-02-15T12:42:23;95265.63;;;6.55;54.92
20009;BME280;10165;42.662;23.260;2023-02-15T12:45:00;95266.22;;;6.34;55.83
20009;BME280;10165;42.662;23.260;2023-02-15T12:47:28;95255.53;;;6.71;55.43
20009;BME280;10165;42.662;23.260;2023-02-15T12:52:45;95247.88;;;6.69;54.38
20009;BME280;10165;42.662;23.260;2023-02-15T12:58:05;95258.16;;;6.57;55.09
20009;BME280;10165;42.662;23.260;2023-02-15T13:00:32;95247.00;;;6.42;55.22
20009;BME280;10165;42.662;23.260;2023-02-15T13:03:00;95252.69;;;6.35;55.24
20009;BME280;10165;42.662;23.260;2023-02-15T13:05:39;95250.66;;;6.46;55.34
20009;BME280;10165;42.662;23.260;2023-02-15T13:08:19;95249.13;;;7.18;53.63
20009;BME280;10165;42.662;23.260;2023-02-15T13:11:02;95242.22;;;6.57;54.62
20009;BME280;10165;42.662;23.260;2023-02-15T13:13:35;95249.66;;;6.74;54.35
20009;BME280;10165;42.662;23.260;2023-02-15T13:16:07;95247.53;;;6.90;54.44
20009;BME280;10165;42.662;23.260;2023-02-15T13:18:46;95240.06;;;7.19;53.57
20009;BME280;10165;42.662;23.260;2023-02-15T13:21:20;95241.91;;;6.91;53.98
20009;BME280;10165;42.662;23.260;2023-02-15T13:23:53;95241.72;;;7.29;53.68
20009;BME280;10165;42.662;23.260;2023-02-15T13:26:26;95236.59;;;6.78;54.20
20009;BME280;10165;42.662;23.260;2023-02-15T13:28:56;95238.19;;;7.06;54.15
20009;BME280;10165;42.662;23.260;2023-02-15T13:31:27;95241.94;;;7.05;53.17
20009;BME280;10165;42.662;23.260;2023-02-15T13:34:03;95247.53;;;6.90;53.97
20009;BME280;10165;42.662;23.260;2023-02-15T13:37:00;95245.88;;;7.35;53.58
20009;BME280;10165;42.662;23.260;2023-02-15T13:42:22;95249.34;;;7.35;53.47
20009;BME280;10165;42.662;23.260;2023-02-15T13:47:55;95247.09;;;6.83;54.79
20009;BME280;10165;42.662;23.260;2023-02-15T13:53:29;95254.97;;;6.88;54.88
20009;BME280;10165;42.662;23.260;2023-02-15T14:01:57;95261.47;;;6.82;54.64
20009;BME280;10165;42.662;23.260;2023-02-15T14:09:56;95277.13;;;6.51;56.25
20009;BME280;10165;42.662;23.260;2023-02-15T14:15:47;95284.66;;;6.25;56.87
20009;BME280;10165;42.662;23.260;2023-02-15T14:20:59;95282.06;;;7.03;54.70
20009;BME280;10165;42.662;23.260;2023-02-15T14:32:04;95290.03;;;6.39;56.84
20009;BME280;10165;42.662;23.260;2023-02-15T14:34:54;95298.63;;;6.31;56.67
20009;BME280;10165;42.662;23.260;2023-02-15T14:37:42;95286.72;;;5.91;57.80
20009;BME280;10165;42.662;23.260;2023-02-15T14:43:31;95275.22;;;6.70;56.04
20009;BME280;10165;42.662;23.260;2023-02-15T14:46:10;95285.56;;;6.85;55.00
20009;BME280;10165;42.662;23.260;2023-02-15T14:48:44;95287.16;;;6.54;55.84
20009;BME280;10165;42.662;23.260;2023-02-15T14:54:52;95283.75;;;5.97;57.83
20009;BME280;10165;42.662;23.260;2023-02-15T14:59:42;95274.75;;;6.31;56.79
20009;BME280;10165;42.662;23.260;2023-02-15T15:02:15;95277.56;;;6.20;57.36
20009;BME280;10165;42.662;23.260;2023-02-15T15:07:37;95287.66;;;6.00;57.71
20009;BME280;10165;42.662;23.260;2023-02-15T15:12:47;95278.00;;;6.28;56.87
20009;BME280;10165;42.662;23.260;2023-02-15T15:25:50;95289.41;;;5.67;58.34
20009;BME280;10165;42.662;23.260;2023-02-15T15:31:07;95296.78;;;5.70;58.76
20009;BME280;10165;42.662;23.260;2023-02-15T15:41:48;95313.66;;;5.32;59.67
20009;BME280;10165;42.662;23.260;2023-02-15T15:49:37;95310.22;;;5.55;58.99
20009;BME280;10165;42.662;23.260;2023-02-15T15:52:16;95309.38;;;5.59;58.95
20009;BME280;10165;42.662;23.260;2023-02-15T15:54:44;95301.50;;;5.73;58.41
20009;BME280;10165;42.662;23.260;2023-02-15T15:57:19;95314.41;;;5.56;58.86
20009;BME280;10165;42.662;23.260;2023-02-15T15:59:48;95305.75;;;5.74;58.36
20009;BME280;10165;42.662;23.260;2023-02-15T16:02:17;95312.47;;;5.66;58.07
20009;BME280;10165;42.662;23.260;2023-02-15T16:04:45;95310.09;;;5.65;58.59
20009;BME280;10165;42.662;23.260;2023-02-15T16:12:21;95307.81;;;5.29;58.97
20009;BME280;10165;42.662;23.260;2023-02-15T16:14:49;95310.53;;;5.48;59.08
20009;BME280;10165;42.662;23.260;2023-02-15T16:17:21;95309.47;;;5.73;58.09
20009;BME280;10165;42.662;23.260;2023-02-15T16:19:49;95312.31;;;5.05;59.87
20009;BME280;10165;42.662;23.260;2023-02-15T16:22:24;95319.63;;;5.66;58.53